sensor_id;sensor_type;location;lat;lon;timestamp;pressure;altitude;pressure_sealevel;temperature
62932;BMP280;49037;41.898;25.004;2022-08-19T06:06:51;96208.53;;;26.43
62932;BMP280;49037;41.898;25.004;2022-08-19T06:23:41;96209.66;;;27.53
62932;BMP280;49037;41.898;25.004;2022-08-19T06:26:22;96210.09;;;27.73
62932;BMP280;49037;41.898;25.004;2022-08-19T06:32:30;96224.72;;;28.20
62932;BMP280;49037;41.898;25.004;2022-08-19T06:35:00;96226.28;;;28.31
62932;BMP280;49037;41.898;25.004;2022-08-19T06:37:28;96232.84;;;28.55
62932;BMP280;49037;41.898;25.004;2022-08-19T06:39:57;96222.03;;;28.65
62932;BMP280;49037;41.898;25.004;2022-08-19T06:42:28;96232.72;;;28.90
62932;BMP280;49037;41.898;25.004;2022-08-19T07:13:21;96233.69;;;30.25
62932;BMP280;49037;41.898;25.004;2022-08-19T17:39:02;96025.38;;;28.09
62932;BMP280;49037;41.898;25.004;2022-08-19T17:41:51;96031.53;;;28.07
62932;BMP280;49037;41.898;25.004;2022-08-19T17:44:17;96051.50;;;28.10
62932;BMP280;49037;41.898;25.004;2022-08-19T17:47:08;96047.25;;;28.03
62932;BMP280;49037;41.898;25.004;2022-08-19T17:49:57;96045.91;;;28.04
62932;BMP280;49037;41.898;25.004;2022-08-19T19:27:28;96139.66;;;26.84
62932;BMP280;49037;41.898;25.004;2022-08-19T20:15:42;96147.41;;;25.58
62932;BMP280;49037;41.898;25.004;2022-08-19T22:35:17;96150.31;;;24.09
62932;BMP280;49037;41.898;25.004;2022-08-19T22:37:50;96141.44;;;24.09
62932;BMP280;49037;41.898;25.004;2022-08-19T22:40:17;96130.31;;;24.03
62932;BMP280;49037;41.898;25.004;2022-08-19T22:43:15;96136.53;;;24.05
62932;BMP280;49037;41.898;25.004;2022-08-19T22:46:03;96141.31;;;24.05
62932;BMP280;49037;41.898;25.004;2022-08-19T22:51:42;96145.50;;;24.08
62932;BMP280;49037;41.898;25.004;2022-08-19T22:57:01;96156.41;;;24.08
62932;BMP280;49037;41.898;25.004;2022-08-19T23:02:03;96148.88;;;24.06
62932;BMP280;49037;41.898;25.004;2022-08-19T23:12:54;96132.28;;;23.81
62932;BMP280;49037;41.898;25.004;2022-08-19T23:15:25;96131.75;;;23.85
62932;BMP280;49037;41.898;25.004;2022-08-19T23:18:41;96141.25;;;23.84
62932;BMP280;49037;41.898;25.004;2022-08-19T23:21:06;96130.63;;;23.72
62932;BMP280;49037;41.898;25.004;2022-08-19T23:25:31;96128.38;;;23.67
62932;BMP280;49037;41.898;25.004;2022-08-19T23:27:57;96138.31;;;23.58
62932;BMP280;49037;41.898;25.004;2022-08-19T23:30:45;96132.06;;;23.56
62932;BMP280;49037;41.898;25.004;2022-08-19T23:33:59;96126.38;;;23.48
62932;BMP280;49037;41.898;25.004;2022-08-19T23:36:33;96132.44;;;23.47
62932;BMP280;49037;41.898;25.004;2022-08-19T23:38:59;96128.94;;;23.44
62932;BMP280;49037;41.898;25.004;2022-08-19T23:41:28;96131.53;;;23.40
62932;BMP280;49037;41.898;25.004;2022-08-19T23:43:53;96143.19;;;23.43
62932;BMP280;49037;41.898;25.004;2022-08-19T23:46:19;96124.66;;;23.39
62932;BMP280;49037;41.898;25.004;2022-08-19T23:49:18;96122.00;;;23.41
62932;BMP280;49037;41.898;25.004;2022-08-19T23:51:47;96125.19;;;23.36
62932;BMP280;49037;41.898;25.004;2022-08-19T23:54:12;96118.91;;;23.31
62932;BMP280;49037;41.898;25.004;2022-08-19T23:56:38;96122.34;;;23.32
62932;BMP280;49037;41.898;25.004;2022-08-19T23:59:03;96122.97;;;23.30
